Time;durP1;ratioP1;P1;durP2;ratioP2;P2;SDS_P1;SDS_P2;PMS_P1;PMS_P2;Temp;Humidity;BMP_temperature;BMP_pressure;BME280_temperature;BME280_humidity;BME280_pressure;Samples;Min_cycle;Max_cycle;Signal;HPM_P1;HPM_P2
2021/11/22 00:01:28;;;;;;;;;12.75;6.25;;;;;14.16;100.00;101243.78;5056423;28;47338;-79
2021/11/22 00:03:53;;;;;;;;;3.00;3.00;;;;;14.11;100.00;101237.13;5080220;28;45667;-79
2021/11/22 00:06:19;;;;;;;;;6.50;6.00;;;;;14.07;100.00;101246.25;5051699;28;45511;-78
2021/11/22 00:08:44;;;;;;;;;7.75;6.00;;;;;14.21;100.00;101252.22;5051275;28;45426;-79
2021/11/22 00:11:10;;;;;;;;;11.00;6.00;;;;;14.24;100.00;101248.50;5054396;28;46220;-78
2021/11/22 00:13:35;;;;;;;;;10.25;6.50;;;;;14.22;100.00;101255.75;5059635;28;45294;-79
2021/11/22 00:16:00;;;;;;;;;16.25;7.75;;;;;14.16;100.00;101251.75;5068171;28;45375;-79
2021/11/22 00:18:26;;;;;;;;;7.00;7.00;;;;;14.19;100.00;101253.34;5055265;28;45584;-79
2021/11/22 00:20:52;;;;;;;;;11.00;8.00;;;;;14.11;100.00;101248.56;5068468;28;45452;-79
2021/11/22 00:23:17;;;;;;;;;13.25;7.25;;;;;14.14;100.00;101248.34;5056201;28;45293;-79
2021/11/22 00:25:43;;;;;;;;;8.00;7.00;;;;;14.15;100.00;101243.88;5058446;28;45210;-79
2021/11/22 00:28:08;;;;;;;;;12.00;11.00;;;;;14.19;100.00;101250.66;5053096;28;45472;-78
2021/11/22 00:30:34;;;;;;;;;20.50;14.00;;;;;14.16;100.00;101241.13;5045861;28;45323;-79
2021/11/22 00:33:01;;;;;;;;;18.75;14.25;;;;;14.26;100.00;101253.72;5049988;28;45405;-79
2021/11/22 00:35:33;;;;;;;;;19.75;15.25;;;;;14.23;100.00;101255.63;5064203;28;45362;-79
2021/11/22 00:38:02;;;;;;;;;15.50;15.25;;;;;14.29;100.00;101248.19;5068965;28;45440;-78
2021/11/22 00:40:27;;;;;;;;;17.50;15.00;;;;;14.24;100.00;101259.13;5053268;28;46241;-77
2021/11/22 00:42:53;;;;;;;;;17.75;15.00;;;;;14.25;100.00;101263.50;5049133;28;45370;-77
2021/11/22 00:45:19;;;;;;;;;26.00;15.50;;;;;14.32;100.00;101262.06;5059495;28;45216;-77
2021/11/22 00:47:44;;;;;;;;;15.00;14.75;;;;;14.31;100.00;101262.16;5056800;28;45767;-77
2021/11/22 00:50:10;;;;;;;;;24.00;15.25;;;;;14.35;100.00;101255.69;5061498;28;45683;-79
2021/11/22 00:52:36;;;;;;;;;25.00;15.25;;;;;14.27;100.00;101263.38;5056582;28;45898;-78
2021/11/22 00:55:02;;;;;;;;;15.75;11.50;;;;;14.30;100.00;101268.44;5055916;28;45292;-79
2021/11/22 00:57:28;;;;;;;;;16.25;14.75;;;;;14.27;100.00;101276.66;5074383;27;45424;-78
2021/11/22 00:59:53;;;;;;;;;21.50;14.75;;;;;14.30;100.00;101279.91;5052217;28;45515;-78
2021/11/22 01:02:19;;;;;;;;;19.50;14.75;;;;;14.30;100.00;101279.06;5060369;28;45412;-79
2021/11/22 01:04:44;;;;;;;;;18.25;11.50;;;;;14.30;100.00;101274.59;5060430;28;45426;-79
2021/11/22 01:07:10;;;;;;;;;15.75;11.00;;;;;14.26;100.00;101275.81;5062547;28;45437;-79
2021/11/22 01:09:35;;;;;;;;;15.25;11.00;;;;;14.22;100.00;101274.34;5051429;28;46533;-77
2021/11/22 01:12:01;;;;;;;;;14.00;7.75;;;;;14.20;100.00;101276.28;5062325;28;45469;-79
2021/11/22 01:14:26;;;;;;;;;12.75;7.00;;;;;14.04;100.00;101283.66;5075428;28;44819;-78
2021/11/22 01:16:52;;;;;;;;;9.50;6.75;;;;;14.09;100.00;101289.50;5057033;28;45245;-78
2021/11/22 01:19:18;;;;;;;;;11.00;8.25;;;;;14.17;100.00;101292.44;5051643;28;46412;-78
2021/11/22 01:21:44;;;;;;;;;9.75;7.25;;;;;14.04;100.00;101292.47;5056071;28;45707;-76
2021/11/22 01:24:10;;;;;;;;;12.50;7.75;;;;;14.06;100.00;101287.91;5054230;28;45215;-76
2021/11/22 01:26:35;;;;;;;;;9.75;6.00;;;;;14.09;100.00;101300.97;5062626;28;45432;-79
2021/11/22 01:29:01;;;;;;;;;7.50;6.00;;;;;14.08;100.00;101301.94;5046643;28;45962;-79
2021/11/22 01:31:26;;;;;;;;;8.75;7.00;;;;;14.10;100.00;101302.66;5059755;28;45558;-79
2021/11/22 01:33:52;;;;;;;;;10.25;9.25;;;;;14.11;100.00;101303.53;5059326;28;45454;-79
2021/11/22 01:36:17;;;;;;;;;12.00;7.00;;;;;14.07;100.00;101308.19;5062058;28;45489;-78
2021/11/22 01:38:43;;;;;;;;;14.00;8.00;;;;;14.11;100.00;101308.81;5047639;28;45441;-79
2021/11/22 01:41:08;;;;;;;;;8.25;6.75;;;;;14.05;100.00;101307.44;5044788;28;45449;-79
2021/11/22 01:43:34;;;;;;;;;7.25;7.00;;;;;14.04;100.00;101308.41;5055028;28;45428;-78
2021/11/22 01:46:00;;;;;;;;;11.25;8.00;;;;;13.99;100.00;101307.91;5060131;28;45450;-79
2021/11/22 01:48:26;;;;;;;;;18.75;7.75;;;;;14.02;100.00;101312.97;5054074;28;45464;-78
2021/11/22 01:50:53;;;;;;;;;8.25;7.75;;;;;13.86;100.00;101315.91;5059237;28;45371;-79
2021/11/22 01:53:20;;;;;;;;;8.75;6.00;;;;;13.91;100.00;101318.25;5060510;28;45501;-78
2021/11/22 01:55:46;;;;;;;;;7.00;7.00;;;;;13.88;100.00;101318.44;5057221;28;45601;-79
2021/11/22 01:58:12;;;;;;;;;8.50;7.00;;;;;13.92;100.00;101319.09;5052105;28;45358;-79
2021/11/22 02:00:42;;;;;;;;;5.50;5.50;;;;;13.95;100.00;101324.16;5057538;28;45414;-78
2021/11/22 02:03:09;;;;;;;;;5.50;5.50;;;;;13.84;100.00;101323.13;5050629;28;45342;-79
2021/11/22 02:05:36;;;;;;;;;9.25;6.50;;;;;13.80;100.00;101324.31;5049058;28;45530;-79
2021/11/22 02:08:03;;;;;;;;;8.25;5.75;;;;;13.84;100.00;101327.56;5056077;28;45331;-79
2021/11/22 02:10:30;;;;;;;;;9.75;7.00;;;;;13.79;100.00;101325.28;5045877;28;45380;-79
2021/11/22 02:12:56;;;;;;;;;11.25;6.25;;;;;13.79;100.00;101327.94;5060247;28;45548;-78
2021/11/22 02:15:23;;;;;;;;;11.75;6.25;;;;;13.84;100.00;101332.88;5051804;28;45520;-79
2021/11/22 02:17:50;;;;;;;;;13.00;7.75;;;;;13.81;100.00;101333.13;5048894;28;45489;-79
2021/11/22 02:20:20;;;;;;;;;8.25;6.75;;;;;13.85;100.00;101332.78;5060858;28;45613;-79
2021/11/22 02:22:48;;;;;;;;;10.75;6.00;;;;;13.74;100.00;101337.19;5061225;28;45446;-78
2021/11/22 02:25:15;;;;;;;;;7.00;6.00;;;;;13.80;100.00;101342.91;5059058;28;45745;-78
2021/11/22 02:27:43;;;;;;;;;6.50;6.00;;;;;13.69;100.00;101342.81;5048087;28;45298;-79
2021/11/22 02:30:11;;;;;;;;;11.25;6.50;;;;;13.67;100.00;101357.13;5061402;28;45396;-79
2021/11/22 02:32:38;;;;;;;;;10.75;5.00;;;;;13.62;100.00;101340.69;5059867;28;45405;-79
2021/11/22 02:35:07;;;;;;;;;4.00;4.00;;;;;13.62;100.00;101351.31;5048914;28;45656;-78
2021/11/22 02:37:32;;;;;;;;;8.25;6.50;;;;;13.54;100.00;101332.44;5059504;28;45371;-78
2021/11/22 02:39:58;;;;;;;;;7.00;7.00;;;;;13.41;100.00;101337.75;5060042;28;45232;-78
2021/11/22 02:42:28;;;;;;;;;9.00;6.00;;;;;13.48;100.00;101346.97;5044086;28;45269;-78
2021/11/22 02:44:55;;;;;;;;;10.25;6.00;;;;;13.38;100.00;101344.09;5050270;28;45313;-77
2021/11/22 02:47:21;;;;;;;;;8.50;6.00;;;;;13.54;100.00;101343.91;5051712;28;46378;-77
2021/11/22 02:49:47;;;;;;;;;10.25;6.00;;;;;13.48;100.00;101346.97;5058955;28;45484;-79
2021/11/22 02:52:12;;;;;;;;;10.50;7.25;;;;;13.54;100.00;101345.69;5049259;28;45288;-79
2021/11/22 02:54:38;;;;;;;;;8.50;7.25;;;;;13.48;100.00;101342.50;5052078;28;45348;-79
2021/11/22 02:57:04;;;;;;;;;9.75;2.00;;;;;13.52;100.00;101355.56;5058223;28;45434;-78
2021/11/22 02:59:30;;;;;;;;;7.75;6.00;;;;;13.52;100.00;101358.22;5047243;28;45373;-79
2021/11/22 03:01:55;;;;;;;;;9.50;5.75;;;;;13.45;100.00;101353.34;5059046;28;45481;-79
2021/11/22 03:04:35;;;;;;;;;9.25;6.00;;;;;13.50;100.00;101353.03;5052918;28;45463;-79
2021/11/22 03:07:02;;;;;;;;;6.00;6.00;;;;;13.41;100.00;101341.25;5060160;28;47422;-79
2021/11/22 03:09:27;;;;;;;;;5.25;4.50;;;;;13.37;100.00;101347.75;5041226;28;45639;-79
2021/11/22 03:11:58;;;;;;;;;6.75;5.25;;;;;13.46;100.00;101357.72;5058275;28;45409;-79
2021/11/22 03:14:25;;;;;;;;;11.25;5.75;;;;;13.37;100.00;101358.34;5059719;28;45827;-79
2021/11/22 03:16:51;;;;;;;;;6.75;6.75;;;;;13.35;100.00;101360.25;5054351;28;45424;-78
2021/11/22 03:19:16;;;;;;;;;6.00;5.75;;;;;13.30;100.00;101364.16;5059961;28;46126;-79
2021/11/22 03:21:41;;;;;;;;;10.50;6.50;;;;;13.35;100.00;101364.72;5061691;28;45173;-77
2021/11/22 03:24:07;;;;;;;;;8.50;5.25;;;;;13.34;100.00;101363.00;5060971;28;45299;-79
2021/11/22 03:26:33;;;;;;;;;6.75;6.75;;;;;13.32;100.00;101368.41;5048026;28;45672;-78
2021/11/22 03:28:58;;;;;;;;;12.25;10.00;;;;;13.14;100.00;101372.31;5060313;28;45511;-79
2021/11/22 03:31:24;;;;;;;;;6.75;5.00;;;;;13.04;100.00;101373.88;5059781;28;45455;-79
2021/11/22 03:33:49;;;;;;;;;10.50;6.50;;;;;13.03;100.00;101364.22;5058464;28;45485;-79
2021/11/22 03:36:15;;;;;;;;;10.50;6.00;;;;;12.98;100.00;101372.50;5054891;28;46282;-79
2021/11/22 03:38:41;;;;;;;;;9.75;8.75;;;;;13.02;100.00;101378.41;5047371;28;45451;-78
2021/11/22 03:41:14;;;;;;;;;7.00;7.00;;;;;13.11;100.00;101380.44;5050427;28;45378;-79
2021/11/22 03:43:55;;;;;;;;;9.75;7.00;;;;;13.13;100.00;101394.47;5055713;28;45430;-79
2021/11/22 03:46:21;;;;;;;;;10.25;6.00;;;;;13.06;100.00;101383.41;5059989;28;46100;-79
2021/11/22 03:48:47;;;;;;;;;10.25;6.00;;;;;13.10;100.00;101390.22;5059307;28;45248;-79
2021/11/22 03:51:12;;;;;;;;;10.25;6.50;;;;;13.09;100.00;101395.63;5051528;28;45313;-79
2021/11/22 03:53:38;;;;;;;;;11.00;7.00;;;;;13.13;100.00;101391.81;5053822;28;45470;-79
2021/11/22 03:56:04;;;;;;;;;16.25;6.50;;;;;13.17;100.00;101390.69;5061347;28;45632;-79
2021/11/22 03:58:30;;;;;;;;;7.00;6.50;;;;;13.12;100.00;101401.56;5058506;28;45736;-79
2021/11/22 04:00:55;;;;;;;;;12.25;6.50;;;;;13.12;100.00;101406.88;5055313;28;45472;-77
2021/11/22 04:03:21;;;;;;;;;10.00;7.00;;;;;13.10;100.00;101400.00;5048634;28;45530;-77
2021/11/22 04:05:48;;;;;;;;;15.00;10.50;;;;;13.09;100.00;101408.91;5054542;28;45542;-78
2021/11/22 04:08:13;;;;;;;;;6.00;6.00;;;;;13.12;100.00;101414.81;5043170;28;45555;-79
2021/11/22 04:10:38;;;;;;;;;7.00;7.00;;;;;13.12;100.00;101416.63;5052086;28;45216;-76
2021/11/22 04:13:06;;;;;;;;;7.75;5.50;;;;;13.23;100.00;101418.59;5056376;28;45235;-78
2021/11/22 04:15:32;;;;;;;;;10.50;7.50;;;;;13.22;100.00;101428.34;5052706;28;46177;-79
2021/11/22 04:17:57;;;;;;;;;10.00;7.00;;;;;13.18;100.00;101429.53;5059428;28;45335;-79
2021/11/22 04:20:23;;;;;;;;;13.25;10.00;;;;;13.20;100.00;101435.53;5047260;28;46846;-78
2021/11/22 04:22:49;;;;;;;;;10.00;8.50;;;;;13.06;100.00;101436.44;5084119;27;45428;-79
2021/11/22 04:25:14;;;;;;;;;9.50;6.50;;;;;13.10;100.00;101437.97;5083461;28;46494;-79
2021/11/22 04:27:40;;;;;;;;;7.25;7.00;;;;;13.04;100.00;101437.50;5083475;28;45392;-79
2021/11/22 04:30:09;;;;;;;;;9.00;6.50;;;;;13.06;100.00;101449.72;5050571;27;45471;-78
2021/11/22 04:32:35;;;;;;;;;11.50;9.00;;;;;12.99;100.00;101450.22;5056709;28;45430;-78
2021/11/22 04:35:03;;;;;;;;;10.00;5.25;;;;;12.98;100.00;101448.53;5045640;28;45509;-78
2021/11/22 04:37:29;;;;;;;;;11.50;10.00;;;;;12.95;100.00;101454.03;5049306;28;46003;-79
2021/11/22 04:39:55;;;;;;;;;10.50;7.00;;;;;12.94;100.00;101452.31;5062439;28;45337;-79
2021/11/22 04:42:21;;;;;;;;;13.00;10.00;;;;;12.95;100.00;101457.53;5046681;28;45414;-79
2021/11/22 04:44:46;;;;;;;;;9.25;9.25;;;;;12.97;100.00;101460.94;5054239;28;45518;-79
2021/11/22 04:47:12;;;;;;;;;9.75;9.00;;;;;12.92;100.00;101471.00;5070686;28;45350;-79
2021/11/22 04:49:39;;;;;;;;;13.50;9.00;;;;;12.85;100.00;101466.16;5078576;28;45345;-78
2021/11/22 04:52:07;;;;;;;;;13.75;7.50;;;;;12.92;100.00;101467.50;5062437;28;45473;-78
2021/11/22 04:54:37;;;;;;;;;12.25;9.00;;;;;12.93;100.00;101469.19;5054142;28;45490;-78
2021/11/22 04:57:02;;;;;;;;;10.00;7.50;;;;;12.92;100.00;101478.09;5071751;28;45704;-78
2021/11/22 04:59:28;;;;;;;;;9.50;9.25;;;;;12.96;100.00;101483.09;5073996;28;45377;-79
2021/11/22 05:01:54;;;;;;;;;16.00;10.50;;;;;12.94;100.00;101469.06;5060242;28;45445;-78
2021/11/22 05:04:20;;;;;;;;;12.00;9.25;;;;;13.01;100.00;101486.31;5065128;28;45568;-78
2021/11/22 05:06:45;;;;;;;;;12.50;10.00;;;;;12.96;100.00;101483.09;5051026;28;45865;-78
2021/11/22 05:09:11;;;;;;;;;13.00;10.00;;;;;13.00;100.00;101491.69;5062087;28;45223;-78
2021/11/22 05:11:36;;;;;;;;;14.75;10.25;;;;;12.91;100.00;101484.34;5055968;28;45573;-78
2021/11/22 05:14:01;;;;;;;;;13.00;9.00;;;;;12.98;100.00;101488.28;5055220;28;45438;-79
2021/11/22 05:16:27;;;;;;;;;18.00;10.00;;;;;13.00;100.00;101495.19;5062968;28;45722;-79
2021/11/22 05:18:52;;;;;;;;;12.25;10.00;;;;;12.98;100.00;101490.94;5051248;28;45489;-78
2021/11/22 05:21:18;;;;;;;;;14.00;9.50;;;;;13.03;100.00;101505.59;5060188;28;45367;-78
2021/11/22 05:23:43;;;;;;;;;9.75;9.00;;;;;13.04;100.00;101501.97;5042254;28;47005;-78
2021/11/22 05:26:08;;;;;;;;;16.25;11.00;;;;;13.07;100.00;101506.25;5046267;28;45209;-78
2021/11/22 05:28:34;;;;;;;;;11.00;9.50;;;;;13.05;100.00;101503.69;5061808;28;45433;-79
2021/11/22 05:30:59;;;;;;;;;13.50;9.75;;;;;13.09;100.00;101505.19;5059188;28;45399;-78
2021/11/22 05:33:25;;;;;;;;;15.75;10.75;;;;;13.11;100.00;101513.88;5047428;28;46585;-78
2021/11/22 05:35:50;;;;;;;;;15.00;10.25;;;;;13.02;100.00;101508.34;5071229;28;45442;-78
2021/11/22 05:38:16;;;;;;;;;14.00;10.25;;;;;12.91;100.00;101516.16;5072748;28;45485;-78
2021/11/22 05:40:41;;;;;;;;;11.75;8.25;;;;;12.94;100.00;101515.94;5053847;28;45500;-78
2021/11/22 05:43:06;;;;;;;;;12.75;10.25;;;;;12.95;100.00;101522.94;5062760;28;46004;-78
2021/11/22 05:45:32;;;;;;;;;11.00;9.25;;;;;13.05;100.00;101527.56;5051803;28;45453;-78
2021/11/22 05:47:57;;;;;;;;;13.00;11.00;;;;;13.05;100.00;101527.56;5065074;28;45562;-79
2021/11/22 05:50:23;;;;;;;;;13.25;7.50;;;;;13.08;100.00;101527.38;5059236;28;45611;-78
2021/11/22 05:52:51;;;;;;;;;14.00;10.00;;;;;13.15;100.00;101519.88;5054048;28;45425;-79
2021/11/22 05:55:29;;;;;;;;;10.50;9.25;;;;;13.18;100.00;101526.78;5061212;28;45154;-78
2021/11/22 05:57:55;;;;;;;;;11.50;11.00;;;;;13.16;100.00;101524.22;5050554;28;45378;-78
2021/11/22 06:00:20;;;;;;;;;14.00;11.50;;;;;13.15;100.00;101522.53;5065129;28;45910;-79
2021/11/22 06:02:45;;;;;;;;;17.50;11.75;;;;;13.24;100.00;101531.69;5067663;28;46325;-78
2021/11/22 06:05:11;;;;;;;;;15.25;11.50;;;;;13.19;100.00;101528.50;5051430;28;45433;-78
2021/11/22 06:07:38;;;;;;;;;15.00;11.75;;;;;13.25;100.00;101544.00;5050652;28;45403;-78
2021/11/22 06:10:04;;;;;;;;;17.25;12.25;;;;;13.23;100.00;101541.44;5061478;28;45429;-79
2021/11/22 06:12:30;;;;;;;;;17.00;13.75;;;;;13.23;100.00;101543.25;5060994;28;46000;-79
2021/11/22 06:14:57;;;;;;;;;16.75;13.25;;;;;13.22;100.00;101533.56;5069852;28;45274;-78
2021/11/22 06:17:22;;;;;;;;;23.00;18.75;;;;;13.10;100.00;101548.47;5071732;28;45337;-78
2021/11/22 06:19:47;;;;;;;;;19.00;14.25;;;;;13.07;100.00;101569.88;5075060;28;45785;-78
2021/11/22 06:22:13;;;;;;;;;20.50;14.25;;;;;13.03;100.00;101555.09;5068386;28;46653;-78
2021/11/22 06:24:38;;;;;;;;;17.75;17.50;;;;;13.06;100.00;101560.22;5078282;28;45476;-78
2021/11/22 06:27:04;;;;;;;;;21.25;18.25;;;;;13.11;100.00;101574.03;5068298;28;45307;-79
2021/11/22 06:29:29;;;;;;;;;18.50;17.00;;;;;13.01;100.00;101581.75;5077132;28;45641;-79
2021/11/22 06:31:54;;;;;;;;;17.25;17.25;;;;;12.89;100.00;101584.31;5065320;27;48103;-79
2021/11/22 06:34:20;;;;;;;;;27.25;19.50;;;;;12.97;100.00;101593.47;5058435;28;45475;-79
2021/11/22 06:36:45;;;;;;;;;21.25;18.25;;;;;13.02;100.00;101595.81;5070561;28;45390;-78
2021/11/22 06:39:11;;;;;;;;;18.50;18.25;;;;;12.98;100.00;101586.38;5050598;28;45476;-78
2021/11/22 06:41:36;;;;;;;;;23.25;18.00;;;;;13.02;100.00;101595.81;5051403;28;45411;-79
2021/11/22 06:44:02;;;;;;;;;19.50;16.25;;;;;13.04;100.00;101608.03;5056799;28;45602;-78
2021/11/22 06:46:27;;;;;;;;;25.50;22.00;;;;;13.07;100.00;101609.66;5059195;28;45663;-78
2021/11/22 06:48:53;;;;;;;;;27.25;21.75;;;;;13.11;100.00;101614.66;5057281;28;45500;-78
2021/11/22 06:51:18;;;;;;;;;19.75;18.75;;;;;13.13;100.00;101614.56;5058577;28;45457;-78
2021/11/22 06:53:44;;;;;;;;;23.00;19.75;;;;;13.21;100.00;101624.69;5054336;28;45306;-78
2021/11/22 06:56:09;;;;;;;;;23.00;16.75;;;;;13.17;100.00;101625.88;5059945;28;45637;-78
2021/11/22 06:58:34;;;;;;;;;23.00;16.00;;;;;13.22;100.00;101634.38;5067263;28;45475;-78
2021/11/22 07:01:00;;;;;;;;;18.50;16.00;;;;;13.30;100.00;101635.56;5080475;27;45339;-77
2021/11/22 07:03:25;;;;;;;;;24.50;17.25;;;;;13.34;100.00;101634.44;5069041;28;45329;-78
2021/11/22 07:05:51;;;;;;;;;19.00;15.25;;;;;13.26;100.00;101628.78;5058065;28;45429;-78
2021/11/22 07:08:16;;;;;;;;;19.25;15.00;;;;;13.17;100.00;101641.78;5050690;28;45327;-78
2021/11/22 07:10:42;;;;;;;;;17.25;12.50;;;;;13.36;100.00;101644.94;5057478;28;45427;-78
2021/11/22 07:13:07;;;;;;;;;23.00;15.00;;;;;13.37;100.00;101636.91;5059903;28;45510;-78
2021/11/22 07:15:35;;;;;;;;;19.25;13.50;;;;;13.47;100.00;101639.81;5047562;28;45280;-78
2021/11/22 07:18:01;;;;;;;;;22.50;16.75;;;;;13.54;100.00;101645.56;5075230;28;45394;-78
2021/11/22 07:20:27;;;;;;;;;23.75;15.50;;;;;13.51;100.00;101651.91;5073896;28;46002;-77
2021/11/22 07:22:52;;;;;;;;;16.50;15.50;;;;;13.47;100.00;101655.72;5048385;28;45452;-78
2021/11/22 07:25:17;;;;;;;;;18.00;13.00;;;;;13.30;100.00;101659.44;5055790;28;45411;-77
2021/11/22 07:27:43;;;;;;;;;21.50;13.00;;;;;13.51;100.00;101661.66;5054392;28;45506;-78
2021/11/22 07:30:09;;;;;;;;;18.00;15.00;;;;;13.26;100.00;101670.38;5052270;28;46164;-77
2021/11/22 07:32:34;;;;;;;;;21.00;16.25;;;;;13.31;100.00;101674.41;5053388;28;45410;-78
2021/11/22 07:35:00;;;;;;;;;15.25;13.50;;;;;13.35;100.00;101675.94;5051490;28;45685;-78
2021/11/22 07:37:26;;;;;;;;;16.50;14.75;;;;;13.43;100.00;101680.75;5058433;28;45319;-78
2021/11/22 07:39:52;;;;;;;;;22.50;12.25;;;;;13.52;100.00;101684.59;5049508;28;47097;-78
2021/11/22 07:42:17;;;;;;;;;16.50;14.25;;;;;13.58;100.00;101700.13;5056627;28;45215;-78
2021/11/22 07:44:44;;;;;;;;;16.25;14.00;;;;;13.56;100.00;101700.25;5051580;28;45413;-78
2021/11/22 07:47:10;;;;;;;;;14.00;13.00;;;;;13.61;100.00;101699.94;5054234;28;45726;-78
2021/11/22 07:49:36;;;;;;;;;16.75;11.75;;;;;13.58;100.00;101700.13;5054844;28;46348;-78
2021/11/22 07:52:02;;;;;;;;;14.25;10.75;;;;;13.74;100.00;101703.50;5056034;28;45724;-78
2021/11/22 07:54:27;;;;;;;;;14.00;10.00;;;;;13.75;100.00;101723.75;5054588;28;45511;-78
2021/11/22 07:56:53;;;;;;;;;15.00;12.00;;;;;13.76;100.00;101714.84;5051727;28;45354;-78
2021/11/22 07:59:20;;;;;;;;;13.00;11.50;;;;;13.77;100.00;101721.84;5050771;28;46364;-78
2021/11/22 08:01:46;;;;;;;;;13.00;10.00;;;;;13.84;100.00;101725.81;5052902;28;45753;-76
2021/11/22 08:04:15;;;;;;;;;15.75;12.00;;;;;13.81;100.00;101731.34;5056629;28;45473;-76
2021/11/22 08:06:45;;;;;;;;;21.75;14.75;;;;;13.92;100.00;101735.94;5050299;28;45530;-76
2021/11/22 08:09:16;;;;;;;;;11.00;11.00;;;;;13.91;100.00;101727.13;5055353;28;46180;-76
2021/11/22 08:14:26;;;;;;;;;17.00;12.00;;;;;14.05;100.00;101735.03;5048567;28;45324;-78
2021/11/22 08:16:52;;;;;;;;;12.75;12.00;;;;;14.16;100.00;101729.88;5053236;28;45336;-78
2021/11/22 08:19:19;;;;;;;;;14.25;11.25;;;;;14.28;100.00;101733.50;5056161;28;46079;-78
2021/11/22 08:21:44;;;;;;;;;12.75;12.75;;;;;14.23;100.00;101741.78;5056742;28;46258;-78
2021/11/22 08:24:10;;;;;;;;;17.00;12.00;;;;;14.32;100.00;101734.13;5054328;28;45279;-77
2021/11/22 08:26:35;;;;;;;;;24.25;12.00;;;;;14.46;100.00;101744.72;5056431;28;45469;-78
2021/11/22 08:29:00;;;;;;;;;16.50;12.50;;;;;14.54;100.00;101731.78;5059412;28;45305;-78
2021/11/22 08:31:26;;;;;;;;;16.50;13.00;;;;;14.64;100.00;101745.28;5051584;28;45326;-78
2021/11/22 08:33:51;;;;;;;;;16.25;12.00;;;;;14.71;100.00;101731.47;5053582;28;45894;-78
2021/11/22 08:36:19;;;;;;;;;11.50;6.25;;;;;14.83;100.00;101746.56;5054021;28;45237;-78
2021/11/22 08:38:44;;;;;;;;;13.00;11.50;;;;;14.86;100.00;101741.03;5047608;28;45539;-78
2021/11/22 08:41:09;;;;;;;;;13.00;13.00;;;;;14.84;100.00;101745.59;5055671;28;45745;-78
2021/11/22 08:43:35;;;;;;;;;17.50;12.75;;;;;14.90;100.00;101754.97;5046033;28;46615;-78
2021/11/22 08:46:01;;;;;;;;;11.50;8.50;;;;;15.18;100.00;101744.09;5054283;28;45398;-78
2021/11/22 08:48:27;;;;;;;;;14.50;13.00;;;;;15.53;100.00;101746.03;5052767;28;47091;-78
2021/11/22 08:50:53;;;;;;;;;16.00;8.75;;;;;15.45;100.00;101753.72;5054303;28;45405;-78
2021/11/22 08:53:19;;;;;;;;;12.00;9.25;;;;;15.53;100.00;101760.19;5052183;28;45326;-78
2021/11/22 08:55:44;;;;;;;;;10.50;9.50;;;;;15.49;100.00;101757.84;5056686;28;45428;-78
2021/11/22 08:58:10;;;;;;;;;15.75;8.25;;;;;15.48;100.00;101772.16;5051851;28;45250;-78
2021/11/22 09:00:37;;;;;;;;;12.50;9.00;;;;;15.64;100.00;101772.78;5064694;28;45437;-78
2021/11/22 09:03:03;;;;;;;;;13.00;9.00;;;;;15.81;100.00;101768.88;5052433;28;45442;-78
2021/11/22 09:05:29;;;;;;;;;10.00;9.00;;;;;15.87;100.00;101779.94;5051191;28;45475;-78
2021/11/22 09:07:55;;;;;;;;;16.00;9.00;;;;;15.96;100.00;101775.75;5050210;28;47468;-78
2021/11/22 09:10:23;;;;;;;;;16.00;9.00;;;;;15.92;100.00;101775.13;5059504;28;45518;-78
2021/11/22 09:12:48;;;;;;;;;12.25;8.50;;;;;15.88;100.00;101788.78;5057222;28;45516;-78
2021/11/22 09:15:14;;;;;;;;;12.50;8.00;;;;;15.94;100.00;101783.00;5054641;28;45569;-78
2021/11/22 09:17:40;;;;;;;;;10.75;9.00;;;;;16.05;100.00;101797.22;5065579;28;46061;-78
2021/11/22 09:20:09;;;;;;;;;9.00;8.00;;;;;15.96;100.00;101787.25;5058474;28;45897;-78
2021/11/22 09:22:35;;;;;;;;;9.25;9.00;;;;;15.84;99.93;101788.13;5057725;28;45536;-78
2021/11/22 09:25:03;;;;;;;;;14.25;9.50;;;;;15.83;100.00;101802.44;5056719;28;45472;-78
2021/11/22 09:27:28;;;;;;;;;7.75;7.00;;;;;15.82;97.82;101803.41;5059914;28;45552;-78
2021/11/22 09:29:54;;;;;;;;;7.25;6.00;;;;;15.94;97.93;101801.63;5067426;28;45453;-78
2021/11/22 09:32:19;;;;;;;;;11.75;7.50;;;;;16.14;97.39;101809.03;5066808;28;45323;-78
2021/11/22 09:34:45;;;;;;;;;13.00;7.75;;;;;16.23;96.91;101808.34;5058739;28;45521;-78
2021/11/22 09:37:10;;;;;;;;;11.25;6.00;;;;;16.30;97.89;101809.56;5057621;28;46163;-78
2021/11/22 09:39:36;;;;;;;;;8.25;7.00;;;;;16.18;93.97;101818.50;5050910;28;45387;-78
2021/11/22 09:42:01;;;;;;;;;10.75;8.25;;;;;16.24;96.31;101812.72;5061054;28;45397;-78
2021/11/22 09:44:27;;;;;;;;;7.00;7.00;;;;;16.29;94.78;101828.38;5068403;28;45461;-78
2021/11/22 09:46:53;;;;;;;;;6.50;6.50;;;;;16.23;94.12;101816.34;5059786;28;45489;-78
2021/11/22 09:49:19;;;;;;;;;4.00;4.00;;;;;16.32;95.23;101823.66;5060109;28;45212;-78
2021/11/22 09:51:45;;;;;;;;;10.00;7.25;;;;;16.41;94.93;101835.44;5057286;28;47025;-78
2021/11/22 09:54:10;;;;;;;;;11.50;8.00;;;;;16.40;94.43;101834.59;5057478;28;45387;-78
2021/11/22 09:56:37;;;;;;;;;9.50;6.50;;;;;16.66;92.91;101832.66;5058672;28;46560;-78
2021/11/22 09:59:03;;;;;;;;;10.25;8.00;;;;;16.71;90.44;101849.19;5049430;28;45559;-78
2021/11/22 10:01:35;;;;;;;;;9.50;7.50;;;;;16.91;91.37;101839.66;5052084;28;46689;-78
2021/11/22 10:04:12;;;;;;;;;10.75;8.75;;;;;17.19;90.12;101844.56;5060552;28;46756;-78
2021/11/22 10:06:48;;;;;;;;;9.75;7.50;;;;;17.54;92.26;101849.81;5063165;28;46280;-78
2021/11/22 10:09:35;;;;;;;;;9.00;7.75;;;;;17.84;90.93;101851.91;5061765;28;45398;-78
2021/11/22 10:12:00;;;;;;;;;8.00;6.50;;;;;17.90;85.65;101848.72;5064896;28;45347;-78
2021/11/22 10:14:33;;;;;;;;;8.00;7.00;;;;;18.12;84.16;101845.13;5059127;28;45478;-78
2021/11/22 10:16:59;;;;;;;;;5.50;5.00;;;;;18.24;84.52;101857.50;5054638;28;45725;-78
2021/11/22 10:19:24;;;;;;;;;7.00;7.00;;;;;18.24;82.37;101856.66;5062986;28;45491;-78
2021/11/22 10:21:50;;;;;;;;;9.00;5.25;;;;;18.32;81.02;101856.88;5052401;28;45507;-78
2021/11/22 10:24:15;;;;;;;;;5.75;5.75;;;;;18.28;81.37;101866.13;5059780;28;45539;-78
2021/11/22 10:26:44;;;;;;;;;7.25;6.25;;;;;18.28;80.43;101860.78;5057769;28;47114;-78
2021/11/22 10:29:24;;;;;;;;;14.00;9.50;;;;;18.14;80.19;101861.91;5059658;28;45240;-78
2021/11/22 10:31:57;;;;;;;;;5.00;5.00;;;;;18.22;79.26;101866.63;5052471;28;45296;-78
2021/11/22 10:34:23;;;;;;;;;5.00;5.00;;;;;18.19;78.73;101857.03;5063549;28;45563;-78
2021/11/22 10:36:58;;;;;;;;;6.25;5.50;;;;;18.20;78.23;101863.25;5064648;28;45744;-77
2021/11/22 10:39:25;;;;;;;;;8.50;6.75;;;;;18.21;80.27;101865.78;5059939;28;45722;-78
2021/11/22 10:41:51;;;;;;;;;7.50;7.50;;;;;18.10;78.29;101870.31;5060321;28;45440;-78
2021/11/22 10:44:16;;;;;;;;;5.75;5.50;;;;;18.00;77.77;101869.34;5051912;28;45462;-78
2021/11/22 10:46:50;;;;;;;;;9.50;9.00;;;;;17.84;77.77;101869.75;5058041;28;45219;-78
2021/11/22 10:49:27;;;;;;;;;7.25;6.00;;;;;17.80;78.51;101877.16;5063406;28;45468;-78
2021/11/22 10:52:16;;;;;;;;;9.25;5.50;;;;;17.72;77.48;101873.38;5048040;28;45889;-78
2021/11/22 10:54:54;;;;;;;;;5.25;5.25;;;;;17.70;77.87;101886.88;5053216;28;45714;-78
2021/11/22 10:57:20;;;;;;;;;6.25;6.00;;;;;17.30;75.85;101859.72;5056664;28;47371;-77
2021/11/22 10:59:46;;;;;;;;;7.25;7.25;;;;;17.30;75.72;101875.75;5061171;28;45706;-78
2021/11/22 11:02:11;;;;;;;;;9.50;6.75;;;;;17.15;77.70;101882.28;5057744;28;45214;-78
2021/11/22 11:04:44;;;;;;;;;8.75;5.50;;;;;17.30;77.23;101869.59;5054400;28;45358;-78
2021/11/22 11:07:11;;;;;;;;;8.75;7.25;;;;;17.31;77.62;101884.59;5057131;28;45484;-78
2021/11/22 11:09:50;;;;;;;;;10.25;5.50;;;;;17.37;78.75;101895.69;5058210;28;45422;-78